Time;durP1;ratioP1;P1;durP2;ratioP2;P2;SDS_P1;SDS_P2;PMS_P1;PMS_P2;Temp;Humidity;BMP_temperature;BMP_pressure;BME280_temperature;BME280_humidity;BME280_pressure;Samples;Min_cycle;Max_cycle;Signal;HPM_P1;HPM_P2
2023/12/13 00:04:03;;;;;;;0.20;0.20;;;;;;;;;;10447058;28;20043;-79
2023/12/13 00:09:08;;;;;;;0.60;0.43;;;;;;;;;;10441278;28;20055;-79
2023/12/13 00:14:10;;;;;;;0.40;0.30;;;;;;;;;;10451210;28;20033;-79
2023/12/13 00:19:13;;;;;;;0.32;0.22;;;;;;;;;;10447742;28;20095;-79
2023/12/13 00:24:18;;;;;;;0.85;0.40;;;;;;;;;;10454622;28;20049;-80
2023/12/13 00:29:20;;;;;;;1.40;0.30;;;;;;;;;;10448916;28;20076;-80
2023/12/13 00:34:23;;;;;;;0.22;0.20;;;;;;;;;;10442384;28;20060;-79
2023/12/13 00:39:27;;;;;;;0.30;0.30;;;;;;;;;;10444917;28;20670;-80
2023/12/13 00:44:30;;;;;;;0.57;0.17;;;;;;;;;;10442936;28;20461;-78
2023/12/13 00:49:34;;;;;;;0.20;0.20;;;;;;;;;;10438597;28;20136;-78
2023/12/13 00:54:38;;;;;;;0.55;0.20;;;;;;;;;;10445337;28;20029;-79
2023/12/13 00:59:41;;;;;;;;;;;;;;;;;;10439647;28;22311;-78
2023/12/13 01:04:44;;;;;;;0.20;0.20;;;;;;;;;;10437092;28;19929;-80
2023/12/13 01:09:51;;;;;;;0.38;0.22;;;;;;;;;;10441474;28;20215;-80
2023/12/13 01:14:54;;;;;;;0.20;0.20;;;;;;;;;;10435470;28;20073;-80
2023/12/13 01:19:56;;;;;;;0.20;0.20;;;;;;;;;;10434110;28;20053;-80
2023/12/13 01:25:03;;;;;;;0.85;0.10;;;;;;;;;;10439182;28;20041;-80
2023/12/13 01:30:08;;;;;;;0.40;0.40;;;;;;;;;;10443144;28;20069;-80
2023/12/13 01:35:11;;;;;;;0.30;0.30;;;;;;;;;;10440986;28;20037;-80
2023/12/13 01:40:15;;;;;;;0.10;0.10;;;;;;;;;;10437785;28;20032;-79
2023/12/13 01:45:18;;;;;;;0.45;0.20;;;;;;;;;;10433429;28;20410;-79
2023/12/13 01:50:24;;;;;;;1.75;0.30;;;;;;;;;;10425690;28;20049;-78
2023/12/13 01:55:28;;;;;;;0.30;0.25;;;;;;;;;;10425012;28;20048;-79
2023/12/13 02:00:32;;;;;;;0.35;0.35;;;;;;;;;;10427270;28;20049;-78
2023/12/13 02:05:36;;;;;;;0.20;0.13;;;;;;;;;;10426019;28;20029;-78
2023/12/13 02:10:41;;;;;;;0.40;0.30;;;;;;;;;;10419309;28;20126;-78
2023/12/13 02:15:44;;;;;;;0.13;0.13;;;;;;;;;;10451387;28;20045;-78
2023/12/13 02:20:49;;;;;;;0.20;0.10;;;;;;;;;;10425994;28;20072;-78
2023/12/13 02:25:57;;;;;;;0.20;0.20;;;;;;;;;;10429755;28;20395;-78
2023/12/13 02:31:03;;;;;;;0.38;0.28;;;;;;;;;;10425620;28;20487;-78
2023/12/13 02:36:07;;;;;;;0.00;0.00;;;;;;;;;;10415380;28;20549;-79
2023/12/13 02:41:10;;;;;;;;;;;;;;;;;;10423530;28;20710;-79
2023/12/13 02:46:14;;;;;;;0.45;0.30;;;;;;;;;;10420501;28;19925;-80
2023/12/13 02:51:17;;;;;;;0.57;0.20;;;;;;;;;;10417965;28;20132;-78
2023/12/13 02:56:20;;;;;;;0.15;0.15;;;;;;;;;;10422725;28;20487;-77
2023/12/13 03:01:24;;;;;;;1.38;0.20;;;;;;;;;;10416027;28;20051;-77
2023/12/13 03:06:26;;;;;;;;;;;;;;;;;;10420969;28;20188;-78
2023/12/13 03:11:30;;;;;;;0.52;0.20;;;;;;;;;;10417375;28;20455;-78
2023/12/13 03:16:34;;;;;;;0.27;0.10;;;;;;;;;;10414650;28;20454;-78
2023/12/13 03:21:36;;;;;;;3.10;0.25;;;;;;;;;;10436851;28;20043;-79
2023/12/13 03:26:39;;;;;;;1.33;0.28;;;;;;;;;;10423464;28;20043;-78
2023/12/13 03:31:43;;;;;;;0.55;0.20;;;;;;;;;;10423173;28;20037;-78
2023/12/13 03:36:48;;;;;;;0.32;0.10;;;;;;;;;;10421461;28;20240;-79
2023/12/13 03:41:51;;;;;;;0.50;0.30;;;;;;;;;;10424840;28;20045;-78
2023/12/13 03:46:55;;;;;;;0.50;0.40;;;;;;;;;;10423648;28;20037;-78
2023/12/13 03:51:58;;;;;;;2.78;0.20;;;;;;;;;;10417684;28;20041;-79
2023/12/13 03:57:01;;;;;;;0.22;0.20;;;;;;;;;;10427138;28;20104;-78
2023/12/13 04:02:05;;;;;;;0.10;0.10;;;;;;;;;;10425949;28;20518;-78
2023/12/13 04:07:11;;;;;;;0.38;0.20;;;;;;;;;;10424380;28;20116;-79
2023/12/13 04:12:14;;;;;;;1.30;0.28;;;;;;;;;;10414126;28;20112;-78
2023/12/13 04:17:18;;;;;;;0.85;0.30;;;;;;;;;;10422092;28;20131;-80
2023/12/13 04:22:21;;;;;;;0.15;0.10;;;;;;;;;;10413204;28;20045;-78
2023/12/13 04:27:24;;;;;;;0.73;0.30;;;;;;;;;;10421490;28;20052;-78
2023/12/13 04:32:28;;;;;;;1.38;0.20;;;;;;;;;;10416817;28;20447;-78
2023/12/13 04:37:31;;;;;;;1.77;0.30;;;;;;;;;;10428603;28;20149;-77
2023/12/13 04:42:34;;;;;;;0.00;0.00;;;;;;;;;;10428462;28;20096;-77
2023/12/13 04:47:38;;;;;;;0.00;0.00;;;;;;;;;;10424166;28;20376;-77
2023/12/13 04:52:41;;;;;;;0.47;0.40;;;;;;;;;;10423287;28;20037;-77
2023/12/13 04:57:47;;;;;;;;;;;;;;;;;;10437905;28;20091;-78
2023/12/13 05:02:51;;;;;;;0.10;0.10;;;;;;;;;;10433507;28;19935;-77
2023/12/13 05:07:54;;;;;;;0.22;0.17;;;;;;;;;;10432703;28;20049;-78
2023/12/13 05:12:57;;;;;;;1.08;0.50;;;;;;;;;;10440462;28;20115;-77
2023/12/13 05:18:01;;;;;;;0.50;0.20;;;;;;;;;;10436755;28;20073;-77
2023/12/13 05:23:04;;;;;;;0.88;0.30;;;;;;;;;;10441132;28;20483;-77
2023/12/13 05:28:06;;;;;;;0.30;0.30;;;;;;;;;;10436246;28;20110;-78
2023/12/13 05:33:11;;;;;;;0.50;0.50;;;;;;;;;;10438283;28;20037;-79
2023/12/13 05:38:13;;;;;;;1.38;0.35;;;;;;;;;;10433620;28;20133;-78
2023/12/13 05:43:16;;;;;;;0.52;0.50;;;;;;;;;;10450856;28;20037;-78
2023/12/13 05:48:22;;;;;;;0.63;0.35;;;;;;;;;;10450484;28;21991;-79
2023/12/13 05:53:25;;;;;;;0.70;0.45;;;;;;;;;;10461553;28;20036;-79
2023/12/13 05:58:29;;;;;;;0.63;0.20;;;;;;;;;;10470761;28;20032;-78
2023/12/13 06:03:36;;;;;;;1.35;0.50;;;;;;;;;;10482423;28;20025;-79
2023/12/13 06:08:39;;;;;;;0.35;0.25;;;;;;;;;;10456909;28;20441;-79
2023/12/13 06:13:42;;;;;;;1.17;0.45;;;;;;;;;;10430818;28;20041;-77
2023/12/13 06:18:46;;;;;;;0.82;0.50;;;;;;;;;;10435567;28;20053;-79
2023/12/13 06:23:49;;;;;;;1.25;0.75;;;;;;;;;;10429320;28;20449;-78
2023/12/13 06:28:52;;;;;;;1.90;1.00;;;;;;;;;;10421161;28;20041;-78
2023/12/13 06:33:56;;;;;;;0.73;0.65;;;;;;;;;;10424037;28;20048;-78
2023/12/13 06:39:00;;;;;;;0.60;0.55;;;;;;;;;;10428235;28;20053;-78
2023/12/13 06:44:03;;;;;;;2.67;0.95;;;;;;;;;;10424487;28;20042;-78
2023/12/13 06:49:09;;;;;;;3.97;1.05;;;;;;;;;;10427032;28;20559;-75
2023/12/13 06:54:11;;;;;;;0.90;0.77;;;;;;;;;;10430919;28;20041;-78
2023/12/13 06:59:14;;;;;;;1.52;0.95;;;;;;;;;;10428722;28;20106;-79
2023/12/13 07:04:18;;;;;;;2.28;0.93;;;;;;;;;;10423465;28;20128;-79
2023/12/13 07:09:21;;;;;;;0.95;0.68;;;;;;;;;;10423949;28;20041;-78
2023/12/13 07:14:23;;;;;;;2.85;1.08;;;;;;;;;;10431500;28;20028;-78
2023/12/13 07:19:27;;;;;;;2.15;1.13;;;;;;;;;;10422939;28;20049;-79
2023/12/13 07:24:30;;;;;;;;;;;;;;;;;;10424557;28;20378;-77
2023/12/13 07:29:33;;;;;;;3.03;0.98;;;;;;;;;;10424330;28;19932;-78
2023/12/13 07:34:37;;;;;;;1.77;1.00;;;;;;;;;;10428937;28;20037;-78
2023/12/13 07:39:40;;;;;;;4.20;1.23;;;;;;;;;;10417475;28;20164;-78
2023/12/13 07:44:45;;;;;;;1.85;1.00;;;;;;;;;;10418823;28;20041;-78
2023/12/13 07:49:49;;;;;;;3.05;1.30;;;;;;;;;;10421036;28;20469;-78
2023/12/13 07:54:52;;;;;;;;;;;;;;;;;;10424733;28;20448;-77
2023/12/13 07:59:55;;;;;;;1.35;0.43;;;;;;;;;;10444509;28;19928;-77
2023/12/13 08:04:58;;;;;;;3.45;0.60;;;;;;;;;;10418103;28;20617;-77
2023/12/13 08:10:01;;;;;;;3.65;1.38;;;;;;;;;;10420296;28;20049;-78
2023/12/13 08:15:05;;;;;;;2.80;1.42;;;;;;;;;;10441844;28;20099;-78
2023/12/13 08:20:11;;;;;;;2.40;1.20;;;;;;;;;;10427298;28;20068;-78
2023/12/13 08:25:14;;;;;;;2.42;0.88;;;;;;;;;;10423370;28;20044;-77
2023/12/13 08:30:17;;;;;;;3.72;1.20;;;;;;;;;;10417249;28;20064;-78
2023/12/13 08:35:21;;;;;;;1.98;1.10;;;;;;;;;;10419637;28;20491;-77
2023/12/13 08:40:24;;;;;;;;;;;;;;;;;;10424673;28;20520;-78
2023/12/13 08:45:26;;;;;;;2.45;1.60;;;;;;;;;;10418536;28;20649;-78
2023/12/13 08:50:30;;;;;;;5.70;0.95;;;;;;;;;;10425024;28;20140;-78
2023/12/13 08:55:33;;;;;;;4.00;1.30;;;;;;;;;;10420425;28;20080;-77
2023/12/13 09:00:35;;;;;;;6.82;1.80;;;;;;;;;;10430056;28;20490;-77
2023/12/13 09:05:40;;;;;;;2.10;0.95;;;;;;;;;;10425786;28;20028;-79
2023/12/13 09:10:42;;;;;;;5.93;2.22;;;;;;;;;;10423420;28;20136;-79
2023/12/13 09:15:45;;;;;;;5.57;2.17;;;;;;;;;;10420735;28;20427;-78
2023/12/13 09:20:49;;;;;;;4.70;1.83;;;;;;;;;;10423761;28;20202;-79
2023/12/13 09:25:51;;;;;;;;;;;;;;;;;;10422158;28;20037;-77
2023/12/13 09:30:54;;;;;;;2.55;1.38;;;;;;;;;;10414375;28;19930;-77
2023/12/13 09:35:58;;;;;;;5.82;2.28;;;;;;;;;;10417927;28;20592;-76
2023/12/13 09:41:02;;;;;;;6.18;1.88;;;;;;;;;;10423678;28;20090;-76
2023/12/13 09:46:05;;;;;;;4.45;1.70;;;;;;;;;;10418044;28;20816;-77
2023/12/13 09:51:10;;;;;;;3.38;1.98;;;;;;;;;;10419579;28;20110;-77
2023/12/13 09:56:13;;;;;;;3.60;1.27;;;;;;;;;;10416290;28;20124;-78
2023/12/13 10:01:17;;;;;;;3.47;1.27;;;;;;;;;;10417822;28;20049;-76
2023/12/13 10:06:21;;;;;;;2.80;1.30;;;;;;;;;;10415408;28;20025;-76
2023/12/13 10:11:24;;;;;;;;;;;;;;;;;;10418178;28;20595;-76
2023/12/13 10:16:28;;;;;;;4.82;1.65;;;;;;;;;;10416042;28;20435;-79
2023/12/13 10:21:35;;;;;;;1.17;0.85;;;;;;;;;;10425649;28;20044;-78
2023/12/13 10:26:39;;;;;;;4.00;1.65;;;;;;;;;;10429846;28;21056;-77
2023/12/13 10:31:45;;;;;;;2.33;0.98;;;;;;;;;;10419644;28;20072;-78
2023/12/13 10:36:49;;;;;;;2.05;1.20;;;;;;;;;;10424639;28;20115;-78
2023/12/13 10:41:55;;;;;;;0.85;0.80;;;;;;;;;;10421876;28;20390;-77
2023/12/13 10:47:00;;;;;;;2.38;0.82;;;;;;;;;;10412886;28;20148;-77
2023/12/13 10:52:06;;;;;;;1.35;0.65;;;;;;;;;;10419289;28;20051;-76
2023/12/13 10:57:09;;;;;;;2.28;0.63;;;;;;;;;;10425084;28;20118;-77
2023/12/13 11:02:14;;;;;;;3.20;1.00;;;;;;;;;;10419663;28;20467;-78
2023/12/13 11:07:18;;;;;;;1.05;0.70;;;;;;;;;;10414944;28;20792;-78
2023/12/13 11:12:24;;;;;;;2.85;0.77;;;;;;;;;;10417495;28;20050;-78
2023/12/13 11:17:27;;;;;;;2.55;0.85;;;;;;;;;;10419627;28;20038;-77
2023/12/13 11:22:34;;;;;;;1.85;0.85;;;;;;;;;;10433403;28;20107;-77
2023/12/13 11:27:36;;;;;;;1.52;0.82;;;;;;;;;;10416741;28;20168;-78
2023/12/13 11:32:43;;;;;;;1.50;0.80;;;;;;;;;;10420042;28;20048;-78
2023/12/13 11:37:51;;;;;;;3.38;0.70;;;;;;;;;;10414573;28;20359;-77
2023/12/13 11:42:54;;;;;;;1.27;0.68;;;;;;;;;;10415445;28;20049;-77
2023/12/13 11:47:57;;;;;;;4.30;1.00;;;;;;;;;;10427824;28;20044;-77
2023/12/13 11:53:01;;;;;;;0.60;0.60;;;;;;;;;;10422595;28;20045;-78
2023/12/13 11:58:04;;;;;;;1.27;0.80;;;;;;;;;;10429948;28;20067;-76
2023/12/13 12:03:07;;;;;;;1.80;0.73;;;;;;;;;;10431261;28;20564;-78
2023/12/13 12:08:11;;;;;;;0.95;0.60;;;;;;;;;;10423033;28;20526;-78
2023/12/13 12:13:14;;;;;;;2.00;0.75;;;;;;;;;;10436470;28;20036;-78
2023/12/13 12:18:18;;;;;;;0.93;0.60;;;;;;;;;;10423037;28;20033;-77
2023/12/13 12:23:22;;;;;;;4.63;0.80;;;;;;;;;;10425722;28;20564;-77
2023/12/13 12:28:27;;;;;;;;;;;;;;;;;;10458122;28;20143;-77
2023/12/13 12:33:30;;;;;;;1.27;0.50;;;;;;;;;;10428942;28;19925;-78
2023/12/13 12:38:34;;;;;;;1.95;0.50;;;;;;;;;;10423422;28;20045;-77
2023/12/13 12:43:37;;;;;;;;;;;;;;;;;;10424100;28;20108;-77
2023/12/13 12:48:40;;;;;;;0.90;0.90;;;;;;;;;;10427935;28;19928;-78
2023/12/13 12:53:45;;;;;;;0.40;0.40;;;;;;;;;;10435193;28;20057;-78
2023/12/13 12:58:48;;;;;;;1.20;0.60;;;;;;;;;;10429240;28;20497;-78
2023/12/13 13:03:51;;;;;;;0.52;0.38;;;;;;;;;;10422902;28;20052;-77
2023/12/13 13:08:55;;;;;;;0.82;0.60;;;;;;;;;;10426810;28;20828;-78
2023/12/13 13:13:58;;;;;;;0.65;0.55;;;;;;;;;;10434343;28;20706;-78
2023/12/13 13:19:01;;;;;;;2.28;1.30;;;;;;;;;;10428320;28;20040;-77
2023/12/13 13:24:05;;;;;;;1.95;0.80;;;;;;;;;;10426062;28;20041;-77
2023/12/13 13:29:10;;;;;;;4.28;1.88;;;;;;;;;;10428372;28;20033;-77
2023/12/13 13:34:13;;;;;;;5.15;1.52;;;;;;;;;;10419111;28;20053;-76
2023/12/13 13:39:17;;;;;;;6.75;1.70;;;;;;;;;;10430608;28;20085;-78
2023/12/13 13:44:19;;;;;;;;;;;;;;;;;;10423244;28;20278;-77
2023/12/13 13:49:22;;;;;;;0.55;0.50;;;;;;;;;;10414399;28;19936;-77
2023/12/13 13:54:26;;;;;;;1.13;0.60;;;;;;;;;;10408145;28;20068;-77
2023/12/13 13:59:29;;;;;;;;;;;;;;;;;;10410103;28;20052;-77
2023/12/13 14:04:31;;;;;;;1.23;0.70;;;;;;;;;;10409113;28;19931;-78
2023/12/13 14:09:36;;;;;;;3.05;0.75;;;;;;;;;;10413234;28;20064;-78
2023/12/13 14:14:38;;;;;;;2.53;0.85;;;;;;;;;;10405703;28;21381;-76
2023/12/13 14:19:41;;;;;;;2.30;1.02;;;;;;;;;;10409848;28;20510;-77
2023/12/13 14:24:45;;;;;;;3.33;0.85;;;;;;;;;;10405839;28;20044;-78
2023/12/13 14:29:48;;;;;;;;;;;;;;;;;;10413009;28;21857;-77
2023/12/13 14:34:50;;;;;;;2.58;1.35;;;;;;;;;;10408152;28;19929;-78
2023/12/13 14:39:54;;;;;;;4.78;1.30;;;;;;;;;;10416860;28;20060;-78
2023/12/13 14:44:57;;;;;;;1.92;0.88;;;;;;;;;;10418938;28;20124;-78
2023/12/13 14:50:00;;;;;;;3.15;1.10;;;;;;;;;;10412168;28;20063;-78
2023/12/13 14:55:05;;;;;;;2.47;1.10;;;;;;;;;;10413313;28;21584;-77
2023/12/13 15:00:12;;;;;;;0.75;0.30;;;;;;;;;;10410585;28;20041;-76
2023/12/13 15:05:17;;;;;;;2.72;1.27;;;;;;;;;;10417223;28;20049;-77
2023/12/13 15:10:21;;;;;;;3.03;1.42;;;;;;;;;;10416738;28;20076;-77
2023/12/13 15:15:24;;;;;;;;;;;;;;;;;;10417041;28;20192;-76
2023/12/13 15:20:27;;;;;;;3.03;0.88;;;;;;;;;;10414839;28;20216;-78
2023/12/13 15:25:31;;;;;;;1.13;1.00;;;;;;;;;;10426460;28;20664;-78
2023/12/13 15:30:35;;;;;;;0.68;0.65;;;;;;;;;;10416782;28;20044;-78
2023/12/13 15:35:38;;;;;;;1.90;1.00;;;;;;;;;;10417238;28;20183;-78
2023/12/13 15:40:42;;;;;;;1.13;0.93;;;;;;;;;;10417648;28;20176;-78
2023/12/13 15:45:44;;;;;;;;;;;;;;;;;;10420215;28;20545;-78
2023/12/13 15:50:49;;;;;;;0.93;0.70;;;;;;;;;;10413918;28;19959;-78
2023/12/13 15:55:53;;;;;;;0.90;0.45;;;;;;;;;;10417890;28;20040;-78
2023/12/13 16:00:55;;;;;;;1.48;0.63;;;;;;;;;;10411156;28;20386;-76
2023/12/13 16:05:58;;;;;;;3.38;1.23;;;;;;;;;;10424672;28;20050;-76
2023/12/13 16:11:07;;;;;;;1.88;1.00;;;;;;;;;;10416534;28;20077;-77
2023/12/13 16:16:10;;;;;;;4.38;0.93;;;;;;;;;;10419556;28;20102;-77
2023/12/13 16:21:14;;;;;;;3.03;1.30;;;;;;;;;;10418054;28;20532;-77
2023/12/13 16:26:18;;;;;;;3.80;1.50;;;;;;;;;;10451974;28;20514;-77
2023/12/13 16:31:20;;;;;;;1.10;0.70;;;;;;;;;;10459500;28;20040;-77
2023/12/13 16:36:25;;;;;;;0.77;0.68;;;;;;;;;;10466527;28;20037;-77
2023/12/13 16:41:27;;;;;;;;;;;;;;;;;;10466885;28;20547;-77
2023/12/13 16:46:31;;;;;;;1.35;0.75;;;;;;;;;;10437812;28;19935;-77
2023/12/13 16:51:34;;;;;;;0.85;0.60;;;;;;;;;;10459925;28;21074;-77
2023/12/13 16:56:36;;;;;;;1.40;0.82;;;;;;;;;;10466848;28;20486;-78
2023/12/13 17:01:40;;;;;;;2.70;1.00;;;;;;;;;;10463417;28;20124;-80
2023/12/13 17:06:43;;;;;;;3.15;1.10;;;;;;;;;;10457709;28;20036;-77
2023/12/13 17:11:45;;;;;;;2.45;0.95;;;;;;;;;;10466770;28;20040;-77
2023/12/13 17:16:49;;;;;;;1.85;0.85;;;;;;;;;;10466584;28;20123;-77
2023/12/13 17:21:52;;;;;;;2.35;1.27;;;;;;;;;;10471522;28;20119;-77
2023/12/13 17:26:55;;;;;;;2.55;1.40;;;;;;;;;;10476622;28;20525;-77
2023/12/13 17:31:59;;;;;;;4.83;1.47;;;;;;;;;;10481512;28;20044;-77
2023/12/13 17:37:02;;;;;;;2.78;1.00;;;;;;;;;;10470983;28;20364;-78
2023/12/13 17:42:05;;;;;;;2.70;1.13;;;;;;;;;;10445324;28;20041;-77
2023/12/13 17:47:09;;;;;;;2.53;1.23;;;;;;;;;;10459003;28;20481;-77
2023/12/13 17:52:14;;;;;;;3.08;1.30;;;;;;;;;;10450149;28;20241;-77
2023/12/13 17:57:16;;;;;;;2.78;0.93;;;;;;;;;;10463876;28;20044;-77
2023/12/13 18:02:21;;;;;;;5.60;1.67;;;;;;;;;;10461438;28;20067;-77
2023/12/13 18:07:24;;;;;;;4.22;1.70;;;;;;;;;;10466158;28;20496;-77
2023/12/13 18:12:26;;;;;;;3.38;1.42;;;;;;;;;;10465132;28;20068;-77
2023/12/13 18:17:31;;;;;;;0.80;0.80;;;;;;;;;;10473904;28;20047;-76
2023/12/13 18:22:34;;;;;;;2.13;1.00;;;;;;;;;;10481953;28;20075;-76
2023/12/13 18:27:37;;;;;;;2.17;0.93;;;;;;;;;;10474635;28;20041;-77
2023/12/13 18:32:41;;;;;;;2.35;1.17;;;;;;;;;;10482925;28;20056;-76
2023/12/13 18:37:44;;;;;;;;;;;;;;;;;;10474264;28;20695;-76
2023/12/13 18:42:46;;;;;;;1.55;1.02;;;;;;;;;;10466449;28;19927;-77
2023/12/13 18:47:50;;;;;;;4.82;1.80;;;;;;;;;;10462575;28;20191;-77
2023/12/13 18:52:53;;;;;;;;;;;;;;;;;;10470873;28;20586;-77
2023/12/13 18:57:59;;;;;;;3.08;1.65;;;;;;;;;;10470929;28;20340;-76
2023/12/13 19:03:03;;;;;;;3.70;1.50;;;;;;;;;;10463917;28;20052;-77
2023/12/13 19:08:06;;;;;;;;;;;;;;;;;;10474635;28;20082;-78
2023/12/13 19:13:09;;;;;;;2.53;1.55;;;;;;;;;;10467081;28;19940;-78
2023/12/13 19:18:14;;;;;;;2.03;1.30;;;;;;;;;;10463622;28;20036;-77
2023/12/13 19:23:20;;;;;;;1.95;1.02;;;;;;;;;;10467284;28;20095;-77
2023/12/13 19:28:22;;;;;;;2.78;1.00;;;;;;;;;;10467411;28;20146;-77
2023/12/13 19:33:26;;;;;;;1.38;0.80;;;;;;;;;;10457557;28;20454;-77
2023/12/13 19:38:29;;;;;;;;;;;;;;;;;;10469044;28;20494;-77
2023/12/13 19:43:32;;;;;;;1.08;0.68;;;;;;;;;;10464190;28;19928;-77
2023/12/13 19:48:36;;;;;;;2.78;1.58;;;;;;;;;;10472087;28;20045;-77
2023/12/13 19:53:39;;;;;;;2.47;0.80;;;;;;;;;;10449531;28;20049;-77
2023/12/13 19:58:42;;;;;;;2.35;0.98;;;;;;;;;;10481839;28;20044;-77
2023/12/13 20:03:48;;;;;;;1.00;0.60;;;;;;;;;;10466546;28;20053;-78
2023/12/13 20:08:51;;;;;;;5.97;1.33;;;;;;;;;;10473172;28;20364;-78
2023/12/13 20:13:54;;;;;;;2.47;1.07;;;;;;;;;;10477216;28;20103;-78
2023/12/13 20:19:01;;;;;;;1.80;1.25;;;;;;;;;;10480891;28;20474;-79
2023/12/13 20:24:04;;;;;;;2.00;0.57;;;;;;;;;;10476349;28;20488;-76
2023/12/13 20:29:06;;;;;;;2.45;0.95;;;;;;;;;;10483481;28;20101;-78
2023/12/13 20:34:11;;;;;;;1.42;0.85;;;;;;;;;;10476013;28;20093;-78
2023/12/13 20:39:13;;;;;;;;;;;;;;;;;;10477867;28;20037;-78
2023/12/13 20:44:16;;;;;;;0.52;0.22;;;;;;;;;;10476169;28;19924;-78
2023/12/13 20:49:20;;;;;;;4.93;1.45;;;;;;;;;;10469570;28;20042;-77
2023/12/13 20:54:23;;;;;;;0.40;0.40;;;;;;;;;;10463333;28;20558;-76
2023/12/13 20:59:26;;;;;;;2.00;0.70;;;;;;;;;;10471601;28;20041;-78
2023/12/13 21:04:30;;;;;;;4.10;1.27;;;;;;;;;;10470693;28;20094;-77
2023/12/13 21:09:33;;;;;;;0.50;0.50;;;;;;;;;;10447311;28;20049;-78
2023/12/13 21:14:36;;;;;;;3.13;0.88;;;;;;;;;;10462704;28;20171;-78
2023/12/13 21:19:40;;;;;;;1.70;1.00;;;;;;;;;;10468243;28;22385;-79
2023/12/13 21:24:43;;;;;;;2.80;1.00;;;;;;;;;;10463904;28;20052;-79
2023/12/13 21:29:46;;;;;;;3.63;1.35;;;;;;;;;;10470670;28;20094;-79
2023/12/13 21:34:50;;;;;;;0.82;0.65;;;;;;;;;;10471321;28;20032;-79
2023/12/13 21:39:53;;;;;;;2.40;1.10;;;;;;;;;;10461413;28;20048;-78
2023/12/13 21:44:55;;;;;;;1.77;1.13;;;;;;;;;;10459215;28;20050;-79
2023/12/13 21:50:00;;;;;;;2.05;1.30;;;;;;;;;;10459655;28;20050;-77
2023/12/13 21:55:03;;;;;;;1.90;0.85;;;;;;;;;;10464580;28;20136;-79
2023/12/13 22:00:09;;;;;;;0.43;0.43;;;;;;;;;;10466168;28;20037;-79
2023/12/13 22:05:14;;;;;;;1.15;0.93;;;;;;;;;;10461927;28;20044;-78
2023/12/13 22:10:17;;;;;;;1.75;1.08;;;;;;;;;;10462184;28;20490;-78
2023/12/13 22:15:20;;;;;;;1.70;0.70;;;;;;;;;;10458110;28;20068;-80
2023/12/13 22:20:24;;;;;;;3.83;1.20;;;;;;;;;;10463851;28;20051;-81
2023/12/13 22:25:27;;;;;;;2.30;1.20;;;;;;;;;;10472368;28;20140;-78
2023/12/13 22:30:30;;;;;;;1.23;0.80;;;;;;;;;;10457571;28;20436;-77
2023/12/13 22:35:34;;;;;;;1.23;0.82;;;;;;;;;;10467503;28;20610;-79
2023/12/13 22:40:37;;;;;;;1.38;1.00;;;;;;;;;;10461194;28;20045;-79
2023/12/13 22:45:39;;;;;;;3.70;1.50;;;;;;;;;;10458669;28;20439;-79
2023/12/13 22:50:43;;;;;;;1.48;0.95;;;;;;;;;;10460786;28;20094;-77
2023/12/13 22:55:46;;;;;;;1.17;0.80;;;;;;;;;;10456109;28;20119;-79
2023/12/13 23:00:49;;;;;;;1.60;0.80;;;;;;;;;;10456411;28;20044;-78
2023/12/13 23:05:53;;;;;;;1.65;1.15;;;;;;;;;;10457139;28;20048;-79
2023/12/13 23:10:56;;;;;;;1.83;1.00;;;;;;;;;;10461215;28;20440;-78
2023/12/13 23:15:59;;;;;;;1.35;0.80;;;;;;;;;;10441227;28;20041;-78
2023/12/13 23:21:03;;;;;;;0.93;0.85;;;;;;;;;;10459566;28;20076;-78
2023/12/13 23:26:05;;;;;;;;;;;;;;;;;;10465212;28;20108;-78
2023/12/13 23:31:08;;;;;;;0.50;0.50;;;;;;;;;;10458950;28;20022;-79
2023/12/13 23:36:12;;;;;;;2.72;0.60;;;;;;;;;;10473621;28;20041;-78
2023/12/13 23:41:15;;;;;;;0.60;0.55;;;;;;;;;;10460972;28;20595;-80
2023/12/13 23:46:17;;;;;;;1.52;1.00;;;;;;;;;;10451331;28;20045;-79
2023/12/13 23:51:21;;;;;;;0.45;0.45;;;;;;;;;;10448509;28;20068;-79
2023/12/13 23:56:24;;;;;;;1.50;0.85;;;;;;;;;;10454612;28;20056;-78
